sensor_id;sensor_type;location;lat;lon;timestamp;temperature;humidity
63445;DHT22;49573;47.682;9.170;2022-09-09T00:00:08;15.00;82.60
63445;DHT22;49573;47.682;9.170;2022-09-09T00:03:03;15.00;82.50
63445;DHT22;49573;47.682;9.170;2022-09-09T00:05:59;15.00;82.60
63445;DHT22;49573;47.682;9.170;2022-09-09T00:08:57;14.90;82.70
63445;DHT22;49573;47.682;9.170;2022-09-09T00:11:51;15.00;81.60
63445;DHT22;49573;47.682;9.170;2022-09-09T00:14:47;15.00;82.50
63445;DHT22;49573;47.682;9.170;2022-09-09T00:17:38;14.90;82.80
63445;DHT22;49573;47.682;9.170;2022-09-09T00:20:31;14.90;82.70
63445;DHT22;49573;47.682;9.170;2022-09-09T00:23:23;14.90;82.60
63445;DHT22;49573;47.682;9.170;2022-09-09T00:26:16;14.80;82.90
63445;DHT22;49573;47.682;9.170;2022-09-09T00:29:18;14.80;83.20
63445;DHT22;49573;47.682;9.170;2022-09-09T00:32:12;14.80;82.90
63445;DHT22;49573;47.682;9.170;2022-09-09T00:35:03;14.80;82.40
63445;DHT22;49573;47.682;9.170;2022-09-09T00:37:53;14.80;82.50
63445;DHT22;49573;47.682;9.170;2022-09-09T00:40:46;14.80;83.10
63445;DHT22;49573;47.682;9.170;2022-09-09T00:43:36;14.80;82.80
63445;DHT22;49573;47.682;9.170;2022-09-09T00:46:53;14.70;83.20
63445;DHT22;49573;47.682;9.170;2022-09-09T00:49:51;14.70;83.10
63445;DHT22;49573;47.682;9.170;2022-09-09T00:52:47;14.80;82.90
63445;DHT22;49573;47.682;9.170;2022-09-09T00:55:44;14.70;83.50
63445;DHT22;49573;47.682;9.170;2022-09-09T00:58:30;14.70;83.00
63445;DHT22;49573;47.682;9.170;2022-09-09T01:01:17;14.70;82.90
63445;DHT22;49573;47.682;9.170;2022-09-09T01:04:09;14.70;83.00
63445;DHT22;49573;47.682;9.170;2022-09-09T01:07:06;14.70;83.20
63445;DHT22;49573;47.682;9.170;2022-09-09T01:09:56;14.70;83.50
63445;DHT22;49573;47.682;9.170;2022-09-09T01:12:43;14.70;83.10
63445;DHT22;49573;47.682;9.170;2022-09-09T01:15:32;14.70;83.30
63445;DHT22;49573;47.682;9.170;2022-09-09T01:18:23;14.60;83.40
63445;DHT22;49573;47.682;9.170;2022-09-09T01:21:19;14.50;83.70
63445;DHT22;49573;47.682;9.170;2022-09-09T01:24:21;14.50;83.70
63445;DHT22;49573;47.682;9.170;2022-09-09T01:27:09;14.50;83.50
63445;DHT22;49573;47.682;9.170;2022-09-09T01:29:56;14.50;83.60
63445;DHT22;49573;47.682;9.170;2022-09-09T01:32:45;14.50;83.80
63445;DHT22;49573;47.682;9.170;2022-09-09T01:35:37;14.50;83.70
63445;DHT22;49573;47.682;9.170;2022-09-09T01:38:25;14.50;83.50
63445;DHT22;49573;47.682;9.170;2022-09-09T01:41:12;14.40;83.90
63445;DHT22;49573;47.682;9.170;2022-09-09T01:43:59;14.40;83.90
63445;DHT22;49573;47.682;9.170;2022-09-09T01:46:45;14.40;84.10
63445;DHT22;49573;47.682;9.170;2022-09-09T01:49:32;14.30;84.50
63445;DHT22;49573;47.682;9.170;2022-09-09T01:52:18;14.30;83.90
63445;DHT22;49573;47.682;9.170;2022-09-09T01:55:05;14.40;83.80
63445;DHT22;49573;47.682;9.170;2022-09-09T01:58:06;14.30;84.00
63445;DHT22;49573;47.682;9.170;2022-09-09T02:01:06;14.30;84.00
63445;DHT22;49573;47.682;9.170;2022-09-09T02:03:57;14.20;84.50
63445;DHT22;49573;47.682;9.170;2022-09-09T02:06:46;14.30;84.20
63445;DHT22;49573;47.682;9.170;2022-09-09T02:09:35;14.20;83.90
63445;DHT22;49573;47.682;9.170;2022-09-09T02:12:23;14.20;85.00
63445;DHT22;49573;47.682;9.170;2022-09-09T02:15:17;14.20;84.70
63445;DHT22;49573;47.682;9.170;2022-09-09T02:18:08;14.20;85.30
63445;DHT22;49573;47.682;9.170;2022-09-09T02:20:56;14.10;85.70
63445;DHT22;49573;47.682;9.170;2022-09-09T02:23:47;14.30;85.10
63445;DHT22;49573;47.682;9.170;2022-09-09T02:26:36;14.30;85.70
63445;DHT22;49573;47.682;9.170;2022-09-09T02:29:26;14.40;85.40
63445;DHT22;49573;47.682;9.170;2022-09-09T02:32:17;14.40;85.60
63445;DHT22;49573;47.682;9.170;2022-09-09T02:35:08;14.40;85.50
63445;DHT22;49573;47.682;9.170;2022-09-09T02:37:58;14.40;85.40
63445;DHT22;49573;47.682;9.170;2022-09-09T02:40:45;14.40;85.10
63445;DHT22;49573;47.682;9.170;2022-09-09T02:43:31;14.50;84.90
63445;DHT22;49573;47.682;9.170;2022-09-09T02:46:36;14.50;85.80
63445;DHT22;49573;47.682;9.170;2022-09-09T02:49:35;14.50;85.20
63445;DHT22;49573;47.682;9.170;2022-09-09T02:52:32;14.60;85.30
63445;DHT22;49573;47.682;9.170;2022-09-09T02:55:24;14.70;85.30
63445;DHT22;49573;47.682;9.170;2022-09-09T02:58:12;14.60;85.70
63445;DHT22;49573;47.682;9.170;2022-09-09T03:01:02;14.70;86.00
63445;DHT22;49573;47.682;9.170;2022-09-09T03:03:49;14.70;85.70
63445;DHT22;49573;47.682;9.170;2022-09-09T03:06:35;14.80;85.90
63445;DHT22;49573;47.682;9.170;2022-09-09T03:09:22;14.80;84.80
63445;DHT22;49573;47.682;9.170;2022-09-09T03:12:08;14.80;84.70
63445;DHT22;49573;47.682;9.170;2022-09-09T03:14:56;14.90;84.70
63445;DHT22;49573;47.682;9.170;2022-09-09T03:17:42;14.90;84.90
63445;DHT22;49573;47.682;9.170;2022-09-09T03:20:29;14.90;84.90
63445;DHT22;49573;47.682;9.170;2022-09-09T03:23:16;14.90;85.10
63445;DHT22;49573;47.682;9.170;2022-09-09T03:26:03;14.90;84.80
63445;DHT22;49573;47.682;9.170;2022-09-09T03:28:49;14.90;85.00
63445;DHT22;49573;47.682;9.170;2022-09-09T03:31:38;15.00;85.00
63445;DHT22;49573;47.682;9.170;2022-09-09T03:34:24;14.90;84.90
63445;DHT22;49573;47.682;9.170;2022-09-09T03:37:10;15.00;84.90
63445;DHT22;49573;47.682;9.170;2022-09-09T03:39:56;15.00;84.60
63445;DHT22;49573;47.682;9.170;2022-09-09T03:42:44;15.00;84.80
63445;DHT22;49573;47.682;9.170;2022-09-09T03:45:30;15.10;84.80
63445;DHT22;49573;47.682;9.170;2022-09-09T03:48:17;15.10;84.80
63445;DHT22;49573;47.682;9.170;2022-09-09T03:51:03;15.10;84.90
63445;DHT22;49573;47.682;9.170;2022-09-09T03:53:49;15.00;84.80
63445;DHT22;49573;47.682;9.170;2022-09-09T03:56:35;15.10;84.50
63445;DHT22;49573;47.682;9.170;2022-09-09T03:59:22;15.10;84.70
63445;DHT22;49573;47.682;9.170;2022-09-09T04:02:09;15.20;84.80
63445;DHT22;49573;47.682;9.170;2022-09-09T04:04:55;15.20;84.50
63445;DHT22;49573;47.682;9.170;2022-09-09T04:07:42;15.20;84.40
63445;DHT22;49573;47.682;9.170;2022-09-09T04:10:28;15.20;85.00
63445;DHT22;49573;47.682;9.170;2022-09-09T04:13:15;15.30;84.30
63445;DHT22;49573;47.682;9.170;2022-09-09T04:16:05;15.30;84.80
63445;DHT22;49573;47.682;9.170;2022-09-09T04:18:51;15.30;84.90
63445;DHT22;49573;47.682;9.170;2022-09-09T04:21:39;15.30;85.00
63445;DHT22;49573;47.682;9.170;2022-09-09T04:24:25;15.20;85.20
63445;DHT22;49573;47.682;9.170;2022-09-09T04:27:14;15.20;85.00
63445;DHT22;49573;47.682;9.170;2022-09-09T04:30:00;15.30;84.90
63445;DHT22;49573;47.682;9.170;2022-09-09T04:32:48;15.30;85.00
63445;DHT22;49573;47.682;9.170;2022-09-09T04:35:34;15.30;85.20
63445;DHT22;49573;47.682;9.170;2022-09-09T04:38:21;15.30;84.90
63445;DHT22;49573;47.682;9.170;2022-09-09T04:41:08;15.40;84.20
63445;DHT22;49573;47.682;9.170;2022-09-09T04:43:57;15.40;84.20
63445;DHT22;49573;47.682;9.170;2022-09-09T04:46:43;15.40;84.70
63445;DHT22;49573;47.682;9.170;2022-09-09T04:49:30;15.40;85.10
63445;DHT22;49573;47.682;9.170;2022-09-09T04:52:17;15.40;85.60
63445;DHT22;49573;47.682;9.170;2022-09-09T04:55:04;15.40;85.40
63445;DHT22;49573;47.682;9.170;2022-09-09T04:57:50;15.40;84.60
63445;DHT22;49573;47.682;9.170;2022-09-09T05:00:37;15.50;84.10
63445;DHT22;49573;47.682;9.170;2022-09-09T05:03:23;15.50;84.00
63445;DHT22;49573;47.682;9.170;2022-09-09T05:06:12;15.50;84.40
63445;DHT22;49573;47.682;9.170;2022-09-09T05:08:58;15.50;83.90
63445;DHT22;49573;47.682;9.170;2022-09-09T05:11:45;15.50;83.90
63445;DHT22;49573;47.682;9.170;2022-09-09T05:14:32;15.50;83.90
63445;DHT22;49573;47.682;9.170;2022-09-09T05:17:18;15.50;84.10
63445;DHT22;49573;47.682;9.170;2022-09-09T05:20:04;15.50;84.10
63445;DHT22;49573;47.682;9.170;2022-09-09T05:22:53;15.50;83.60
63445;DHT22;49573;47.682;9.170;2022-09-09T05:25:40;15.40;84.50
63445;DHT22;49573;47.682;9.170;2022-09-09T05:28:27;15.40;83.80
63445;DHT22;49573;47.682;9.170;2022-09-09T05:31:15;15.40;84.30
63445;DHT22;49573;47.682;9.170;2022-09-09T05:34:01;15.40;84.40
63445;DHT22;49573;47.682;9.170;2022-09-09T05:36:47;15.50;84.70
63445;DHT22;49573;47.682;9.170;2022-09-09T05:39:35;15.50;84.90
63445;DHT22;49573;47.682;9.170;2022-09-09T05:42:22;15.50;84.50
63445;DHT22;49573;47.682;9.170;2022-09-09T05:45:09;15.50;85.00
63445;DHT22;49573;47.682;9.170;2022-09-09T05:47:55;15.60;85.40
63445;DHT22;49573;47.682;9.170;2022-09-09T05:50:41;15.50;85.70
63445;DHT22;49573;47.682;9.170;2022-09-09T05:53:27;15.60;85.80
63445;DHT22;49573;47.682;9.170;2022-09-09T05:56:16;15.70;85.60
63445;DHT22;49573;47.682;9.170;2022-09-09T05:59:05;15.60;84.10
63445;DHT22;49573;47.682;9.170;2022-09-09T06:01:52;15.60;84.50
63445;DHT22;49573;47.682;9.170;2022-09-09T06:04:38;15.70;85.20
63445;DHT22;49573;47.682;9.170;2022-09-09T06:07:24;15.80;85.60
63445;DHT22;49573;47.682;9.170;2022-09-09T06:10:11;15.80;85.60
63445;DHT22;49573;47.682;9.170;2022-09-09T06:13:00;15.80;84.90
63445;DHT22;49573;47.682;9.170;2022-09-09T06:15:50;15.80;85.30
63445;DHT22;49573;47.682;9.170;2022-09-09T06:18:36;15.80;85.70
63445;DHT22;49573;47.682;9.170;2022-09-09T06:21:24;15.80;85.70
63445;DHT22;49573;47.682;9.170;2022-09-09T06:24:11;15.80;86.10
63445;DHT22;49573;47.682;9.170;2022-09-09T06:26:59;15.80;86.10
63445;DHT22;49573;47.682;9.170;2022-09-09T06:29:47;15.80;86.20
63445;DHT22;49573;47.682;9.170;2022-09-09T06:32:34;15.90;86.10
63445;DHT22;49573;47.682;9.170;2022-09-09T06:35:20;15.90;85.70
63445;DHT22;49573;47.682;9.170;2022-09-09T06:38:06;16.00;86.00
63445;DHT22;49573;47.682;9.170;2022-09-09T06:40:54;16.00;85.80
63445;DHT22;49573;47.682;9.170;2022-09-09T06:43:41;16.10;85.80
63445;DHT22;49573;47.682;9.170;2022-09-09T06:46:30;16.20;85.50
63445;DHT22;49573;47.682;9.170;2022-09-09T06:49:18;16.30;85.40
63445;DHT22;49573;47.682;9.170;2022-09-09T06:52:04;16.30;85.70
63445;DHT22;49573;47.682;9.170;2022-09-09T06:54:50;16.30;85.50
63445;DHT22;49573;47.682;9.170;2022-09-09T06:57:36;16.40;85.60
63445;DHT22;49573;47.682;9.170;2022-09-09T07:00:22;16.50;85.90
63445;DHT22;49573;47.682;9.170;2022-09-09T07:03:11;16.60;85.00
63445;DHT22;49573;47.682;9.170;2022-09-09T07:05:57;16.60;84.70
63445;DHT22;49573;47.682;9.170;2022-09-09T07:08:43;16.50;82.40
63445;DHT22;49573;47.682;9.170;2022-09-09T07:11:32;16.50;81.20
63445;DHT22;49573;47.682;9.170;2022-09-09T07:14:18;16.70;81.50
63445;DHT22;49573;47.682;9.170;2022-09-09T07:17:04;16.70;82.00
63445;DHT22;49573;47.682;9.170;2022-09-09T07:19:52;16.80;82.90
63445;DHT22;49573;47.682;9.170;2022-09-09T07:22:38;16.90;84.00
63445;DHT22;49573;47.682;9.170;2022-09-09T07:25:24;16.90;83.10
63445;DHT22;49573;47.682;9.170;2022-09-09T07:28:10;16.90;82.70
63445;DHT22;49573;47.682;9.170;2022-09-09T07:30:59;17.00;83.40
63445;DHT22;49573;47.682;9.170;2022-09-09T07:33:47;17.10;82.80
63445;DHT22;49573;47.682;9.170;2022-09-09T07:36:37;17.30;83.30
63445;DHT22;49573;47.682;9.170;2022-09-09T07:39:23;17.30;83.30
63445;DHT22;49573;47.682;9.170;2022-09-09T07:42:09;17.30;81.80
63445;DHT22;49573;47.682;9.170;2022-09-09T07:44:57;17.30;82.10
63445;DHT22;49573;47.682;9.170;2022-09-09T07:47:43;17.40;82.10
63445;DHT22;49573;47.682;9.170;2022-09-09T07:50:29;17.40;82.50
63445;DHT22;49573;47.682;9.170;2022-09-09T07:53:16;17.40;81.30
63445;DHT22;49573;47.682;9.170;2022-09-09T07:56:04;17.50;81.00
63445;DHT22;49573;47.682;9.170;2022-09-09T07:58:52;17.50;81.60
63445;DHT22;49573;47.682;9.170;2022-09-09T08:01:41;17.70;82.60
63445;DHT22;49573;47.682;9.170;2022-09-09T08:04:28;18.10;82.10
63445;DHT22;49573;47.682;9.170;2022-09-09T08:07:14;18.20;80.70
63445;DHT22;49573;47.682;9.170;2022-09-09T08:10:03;18.30;79.40
63445;DHT22;49573;47.682;9.170;2022-09-09T08:12:49;18.30;79.10
63445;DHT22;49573;47.682;9.170;2022-09-09T08:15:35;18.40;77.30
63445;DHT22;49573;47.682;9.170;2022-09-09T08:18:21;18.50;77.90
63445;DHT22;49573;47.682;9.170;2022-09-09T08:21:09;18.70;77.20
63445;DHT22;49573;47.682;9.170;2022-09-09T08:23:58;18.70;75.80
63445;DHT22;49573;47.682;9.170;2022-09-09T08:26:47;18.80;75.50
63445;DHT22;49573;47.682;9.170;2022-09-09T08:29:36;18.70;75.20
63445;DHT22;49573;47.682;9.170;2022-09-09T08:32:23;18.60;75.30
63445;DHT22;49573;47.682;9.170;2022-09-09T08:35:09;18.80;75.80
63445;DHT22;49573;47.682;9.170;2022-09-09T08:37:55;19.00;75.80
63445;DHT22;49573;47.682;9.170;2022-09-09T08:40:44;19.20;75.80
63445;DHT22;49573;47.682;9.170;2022-09-09T08:43:33;19.40;73.40
63445;DHT22;49573;47.682;9.170;2022-09-09T08:46:25;19.30;74.60
63445;DHT22;49573;47.682;9.170;2022-09-09T08:49:29;19.40;77.00
63445;DHT22;49573;47.682;9.170;2022-09-09T08:52:25;19.30;77.40
63445;DHT22;49573;47.682;9.170;2022-09-09T08:55:22;19.30;77.20
63445;DHT22;49573;47.682;9.170;2022-09-09T08:58:13;19.30;75.70
63445;DHT22;49573;47.682;9.170;2022-09-09T09:01:14;19.30;72.90
63445;DHT22;49573;47.682;9.170;2022-09-09T09:04:10;19.90;72.10
63445;DHT22;49573;47.682;9.170;2022-09-09T09:07:03;19.90;74.60
63445;DHT22;49573;47.682;9.170;2022-09-09T09:09:57;19.80;73.50
63445;DHT22;49573;47.682;9.170;2022-09-09T09:12:47;19.80;73.70
63445;DHT22;49573;47.682;9.170;2022-09-09T09:15:37;19.70;72.00
63445;DHT22;49573;47.682;9.170;2022-09-09T09:18:25;19.70;70.70
63445;DHT22;49573;47.682;9.170;2022-09-09T09:21:16;19.50;70.30
63445;DHT22;49573;47.682;9.170;2022-09-09T09:24:07;19.30;69.90
63445;DHT22;49573;47.682;9.170;2022-09-09T09:26:59;19.70;70.60
63445;DHT22;49573;47.682;9.170;2022-09-09T09:29:50;19.50;69.80
63445;DHT22;49573;47.682;9.170;2022-09-09T09:32:39;19.40;70.40
63445;DHT22;49573;47.682;9.170;2022-09-09T09:35:28;19.30;70.10
63445;DHT22;49573;47.682;9.170;2022-09-09T09:38:17;19.10;69.50
63445;DHT22;49573;47.682;9.170;2022-09-09T09:41:03;19.10;70.00
63445;DHT22;49573;47.682;9.170;2022-09-09T09:43:53;19.20;70.10
63445;DHT22;49573;47.682;9.170;2022-09-09T09:46:40;19.20;70.70
63445;DHT22;49573;47.682;9.170;2022-09-09T09:49:25;19.40;70.70
63445;DHT22;49573;47.682;9.170;2022-09-09T09:52:17;19.60;70.90
63445;DHT22;49573;47.682;9.170;2022-09-09T09:55:12;19.80;67.40
63445;DHT22;49573;47.682;9.170;2022-09-09T09:58:04;19.70;66.60
63445;DHT22;49573;47.682;9.170;2022-09-09T10:00:52;20.10;68.60
63445;DHT22;49573;47.682;9.170;2022-09-09T10:03:39;20.30;67.90
63445;DHT22;49573;47.682;9.170;2022-09-09T10:06:31;20.30;65.60
63445;DHT22;49573;47.682;9.170;2022-09-09T10:09:24;20.30;65.40
63445;DHT22;49573;47.682;9.170;2022-09-09T10:12:17;20.30;65.50
63445;DHT22;49573;47.682;9.170;2022-09-09T10:15:19;20.50;66.50
63445;DHT22;49573;47.682;9.170;2022-09-09T10:18:22;20.50;66.50
63445;DHT22;49573;47.682;9.170;2022-09-09T10:21:20;20.40;64.90
63445;DHT22;49573;47.682;9.170;2022-09-09T10:24:37;20.60;64.80
63445;DHT22;49573;47.682;9.170;2022-09-09T10:27:32;20.40;66.30
63445;DHT22;49573;47.682;9.170;2022-09-09T10:30:20;20.60;64.90
63445;DHT22;49573;47.682;9.170;2022-09-09T10:33:09;20.60;64.80
63445;DHT22;49573;47.682;9.170;2022-09-09T10:36:05;20.20;64.80
63445;DHT22;49573;47.682;9.170;2022-09-09T10:38:59;20.50;65.90
63445;DHT22;49573;47.682;9.170;2022-09-09T10:41:50;20.80;63.40
63445;DHT22;49573;47.682;9.170;2022-09-09T10:44:59;20.70;61.90
63445;DHT22;49573;47.682;9.170;2022-09-09T10:48:03;20.80;60.20
63445;DHT22;49573;47.682;9.170;2022-09-09T10:50:56;21.00;59.30
63445;DHT22;49573;47.682;9.170;2022-09-09T10:53:53;21.60;56.50
63445;DHT22;49573;47.682;9.170;2022-09-09T10:56:52;21.70;60.40
63445;DHT22;49573;47.682;9.170;2022-09-09T10:59:42;21.30;57.80
63445;DHT22;49573;47.682;9.170;2022-09-09T11:02:31;20.80;59.30
63445;DHT22;49573;47.682;9.170;2022-09-09T11:05:20;20.60;61.50
63445;DHT22;49573;47.682;9.170;2022-09-09T11:08:10;20.50;60.40
63445;DHT22;49573;47.682;9.170;2022-09-09T11:11:02;20.40;61.60
63445;DHT22;49573;47.682;9.170;2022-09-09T11:13:54;20.30;60.50
63445;DHT22;49573;47.682;9.170;2022-09-09T11:16:45;19.80;58.40
63445;DHT22;49573;47.682;9.170;2022-09-09T11:19:36;19.70;61.50
63445;DHT22;49573;47.682;9.170;2022-09-09T11:22:29;19.60;61.30
63445;DHT22;49573;47.682;9.170;2022-09-09T11:25:18;19.70;63.20
63445;DHT22;49573;47.682;9.170;2022-09-09T11:28:28;19.80;61.40
63445;DHT22;49573;47.682;9.170;2022-09-09T11:31:36;19.80;61.70
63445;DHT22;49573;47.682;9.170;2022-09-09T11:34:36;20.00;61.80
63445;DHT22;49573;47.682;9.170;2022-09-09T11:37:50;20.50;60.20
63445;DHT22;49573;47.682;9.170;2022-09-09T11:40:39;20.60;57.80
63445;DHT22;49573;47.682;9.170;2022-09-09T11:43:29;21.40;56.90
63445;DHT22;49573;47.682;9.170;2022-09-09T11:46:18;21.50;56.30
63445;DHT22;49573;47.682;9.170;2022-09-09T11:49:26;21.80;53.80
63445;DHT22;49573;47.682;9.170;2022-09-09T11:52:18;22.80;54.70
63445;DHT22;49573;47.682;9.170;2022-09-09T11:55:11;22.30;52.10
63445;DHT22;49573;47.682;9.170;2022-09-09T11:57:58;22.10;53.70
63445;DHT22;49573;47.682;9.170;2022-09-09T12:00:47;21.50;53.90
63445;DHT22;49573;47.682;9.170;2022-09-09T12:03:40;22.30;54.70
63445;DHT22;49573;47.682;9.170;2022-09-09T12:06:32;23.00;51.50
63445;DHT22;49573;47.682;9.170;2022-09-09T12:09:27;23.30;50.20
63445;DHT22;49573;47.682;9.170;2022-09-09T12:12:24;23.40;48.30
63445;DHT22;49573;47.682;9.170;2022-09-09T12:15:23;23.30;49.60
63445;DHT22;49573;47.682;9.170;2022-09-09T12:18:15;23.80;51.30
63445;DHT22;49573;47.682;9.170;2022-09-09T12:21:14;24.10;49.10
63445;DHT22;49573;47.682;9.170;2022-09-09T12:24:07;24.20;52.00
63445;DHT22;49573;47.682;9.170;2022-09-09T12:26:59;24.00;49.80
63445;DHT22;49573;47.682;9.170;2022-09-09T12:29:55;24.50;46.70
63445;DHT22;49573;47.682;9.170;2022-09-09T12:32:44;24.60;48.50
63445;DHT22;49573;47.682;9.170;2022-09-09T12:35:31;24.60;48.20
63445;DHT22;49573;47.682;9.170;2022-09-09T12:38:18;24.30;49.60
63445;DHT22;49573;47.682;9.170;2022-09-09T12:41:19;24.20;49.00
63445;DHT22;49573;47.682;9.170;2022-09-09T12:44:08;23.80;48.70
63445;DHT22;49573;47.682;9.170;2022-09-09T12:46:55;24.80;47.90
63445;DHT22;49573;47.682;9.170;2022-09-09T12:49:42;25.40;48.50
63445;DHT22;49573;47.682;9.170;2022-09-09T12:52:31;25.20;47.80
63445;DHT22;49573;47.682;9.170;2022-09-09T12:55:21;24.80;46.40
63445;DHT22;49573;47.682;9.170;2022-09-09T12:58:13;24.70;49.10
63445;DHT22;49573;47.682;9.170;2022-09-09T13:01:04;25.40;45.40
63445;DHT22;49573;47.682;9.170;2022-09-09T13:03:50;25.10;47.40
63445;DHT22;49573;47.682;9.170;2022-09-09T13:06:36;24.80;47.00
63445;DHT22;49573;47.682;9.170;2022-09-09T13:09:22;23.90;47.70
63445;DHT22;49573;47.682;9.170;2022-09-09T13:12:13;24.10;48.60
63445;DHT22;49573;47.682;9.170;2022-09-09T13:15:01;24.50;48.20
63445;DHT22;49573;47.682;9.170;2022-09-09T13:17:57;25.40;45.70
63445;DHT22;49573;47.682;9.170;2022-09-09T13:20:46;25.20;46.40
63445;DHT22;49573;47.682;9.170;2022-09-09T13:23:33;26.70;47.50
63445;DHT22;49573;47.682;9.170;2022-09-09T13:26:23;26.60;42.70
63445;DHT22;49573;47.682;9.170;2022-09-09T13:29:17;26.30;43.90
63445;DHT22;49573;47.682;9.170;2022-09-09T13:32:16;25.80;43.50
63445;DHT22;49573;47.682;9.170;2022-09-09T13:35:03;26.20;42.50
63445;DHT22;49573;47.682;9.170;2022-09-09T13:37:49;25.30;44.20
63445;DHT22;49573;47.682;9.170;2022-09-09T13:40:35;25.80;43.80
63445;DHT22;49573;47.682;9.170;2022-09-09T13:43:23;26.00;43.60
63445;DHT22;49573;47.682;9.170;2022-09-09T13:46:25;26.30;43.00
63445;DHT22;49573;47.682;9.170;2022-09-09T13:49:22;26.00;43.70
63445;DHT22;49573;47.682;9.170;2022-09-09T13:52:11;26.30;42.70
63445;DHT22;49573;47.682;9.170;2022-09-09T13:54:57;26.60;42.90
63445;DHT22;49573;47.682;9.170;2022-09-09T13:57:52;27.10;42.50
63445;DHT22;49573;47.682;9.170;2022-09-09T14:00:38;26.60;42.10
63445;DHT22;49573;47.682;9.170;2022-09-09T14:03:25;25.70;43.40
63445;DHT22;49573;47.682;9.170;2022-09-09T14:06:12;25.60;45.00
63445;DHT22;49573;47.682;9.170;2022-09-09T14:08:59;25.20;44.90
63445;DHT22;49573;47.682;9.170;2022-09-09T14:11:45;25.30;45.40
63445;DHT22;49573;47.682;9.170;2022-09-09T14:14:32;24.80;45.50
63445;DHT22;49573;47.682;9.170;2022-09-09T14:17:17;24.40;46.70
63445;DHT22;49573;47.682;9.170;2022-09-09T14:20:05;24.50;47.50
63445;DHT22;49573;47.682;9.170;2022-09-09T14:22:55;24.60;46.80
63445;DHT22;49573;47.682;9.170;2022-09-09T14:25:43;24.10;47.80
63445;DHT22;49573;47.682;9.170;2022-09-09T14:28:29;24.50;48.50
63445;DHT22;49573;47.682;9.170;2022-09-09T14:31:16;24.40;47.40
63445;DHT22;49573;47.682;9.170;2022-09-09T14:34:03;24.10;49.60
63445;DHT22;49573;47.682;9.170;2022-09-09T14:36:49;24.30;49.40
63445;DHT22;49573;47.682;9.170;2022-09-09T14:39:37;24.40;50.80
63445;DHT22;49573;47.682;9.170;2022-09-09T14:42:23;24.30;50.30
63445;DHT22;49573;47.682;9.170;2022-09-09T14:45:10;24.30;52.10
63445;DHT22;49573;47.682;9.170;2022-09-09T14:47:56;24.30;53.40
63445;DHT22;49573;47.682;9.170;2022-09-09T14:50:43;24.30;54.00
63445;DHT22;49573;47.682;9.170;2022-09-09T14:53:30;24.20;54.30
63445;DHT22;49573;47.682;9.170;2022-09-09T14:56:19;24.10;53.60
63445;DHT22;49573;47.682;9.170;2022-09-09T14:59:06;24.10;55.20
63445;DHT22;49573;47.682;9.170;2022-09-09T15:01:53;23.90;55.60
63445;DHT22;49573;47.682;9.170;2022-09-09T15:04:39;24.00;55.90
63445;DHT22;49573;47.682;9.170;2022-09-09T15:07:25;24.80;56.10
63445;DHT22;49573;47.682;9.170;2022-09-09T15:10:13;24.80;53.70
63445;DHT22;49573;47.682;9.170;2022-09-09T15:13:00;25.00;55.20
63445;DHT22;49573;47.682;9.170;2022-09-09T15:15:46;24.80;53.50
63445;DHT22;49573;47.682;9.170;2022-09-09T15:18:32;26.50;52.80
63445;DHT22;49573;47.682;9.170;2022-09-09T15:21:20;27.30;50.80
63445;DHT22;49573;47.682;9.170;2022-09-09T15:24:07;26.80;50.30
63445;DHT22;49573;47.682;9.170;2022-09-09T15:26:54;26.80;50.20
63445;DHT22;49573;47.682;9.170;2022-09-09T15:29:41;27.40;49.60
63445;DHT22;49573;47.682;9.170;2022-09-09T15:32:28;28.60;47.40
63445;DHT22;49573;47.682;9.170;2022-09-09T15:35:14;29.70;46.10
63445;DHT22;49573;47.682;9.170;2022-09-09T15:38:01;27.00;39.60
63445;DHT22;49573;47.682;9.170;2022-09-09T15:40:53;25.80;41.30
63445;DHT22;49573;47.682;9.170;2022-09-09T15:43:43;26.20;43.30
63445;DHT22;49573;47.682;9.170;2022-09-09T15:46:32;26.40;42.60
63445;DHT22;49573;47.682;9.170;2022-09-09T15:49:20;27.90;39.90
63445;DHT22;49573;47.682;9.170;2022-09-09T15:52:10;27.80;39.20
63445;DHT22;49573;47.682;9.170;2022-09-09T15:54:56;28.20;39.10
63445;DHT22;49573;47.682;9.170;2022-09-09T15:57:42;28.00;38.90
63445;DHT22;49573;47.682;9.170;2022-09-09T16:00:28;28.00;36.90
63445;DHT22;49573;47.682;9.170;2022-09-09T16:03:16;28.20;37.60
63445;DHT22;49573;47.682;9.170;2022-09-09T16:06:04;28.80;37.70
63445;DHT22;49573;47.682;9.170;2022-09-09T16:08:52;29.30;36.50
63445;DHT22;49573;47.682;9.170;2022-09-09T16:11:38;29.30;35.00
63445;DHT22;49573;47.682;9.170;2022-09-09T16:14:25;29.40;35.40
63445;DHT22;49573;47.682;9.170;2022-09-09T16:17:11;29.40;34.70
63445;DHT22;49573;47.682;9.170;2022-09-09T16:19:58;29.50;34.50
63445;DHT22;49573;47.682;9.170;2022-09-09T16:22:44;29.50;34.30
63445;DHT22;49573;47.682;9.170;2022-09-09T16:25:31;29.30;34.20
63445;DHT22;49573;47.682;9.170;2022-09-09T16:28:17;28.90;34.40
63445;DHT22;49573;47.682;9.170;2022-09-09T16:31:04;29.10;34.90
63445;DHT22;49573;47.682;9.170;2022-09-09T16:33:51;28.50;34.20
63445;DHT22;49573;47.682;9.170;2022-09-09T16:36:39;27.80;36.50
63445;DHT22;49573;47.682;9.170;2022-09-09T16:39:26;27.20;37.40
63445;DHT22;49573;47.682;9.170;2022-09-09T16:42:12;27.10;37.60
63445;DHT22;49573;47.682;9.170;2022-09-09T16:44:58;26.70;38.60
63445;DHT22;49573;47.682;9.170;2022-09-09T16:47:44;26.50;38.70
63445;DHT22;49573;47.682;9.170;2022-09-09T16:50:31;26.80;38.30
63445;DHT22;49573;47.682;9.170;2022-09-09T16:53:18;26.60;39.10
63445;DHT22;49573;47.682;9.170;2022-09-09T16:56:05;26.40;38.60
63445;DHT22;49573;47.682;9.170;2022-09-09T16:58:54;26.60;39.10
63445;DHT22;49573;47.682;9.170;2022-09-09T17:01:42;26.00;39.60
63445;DHT22;49573;47.682;9.170;2022-09-09T17:04:29;26.10;39.60
63445;DHT22;49573;47.682;9.170;2022-09-09T17:07:16;25.40;40.90
63445;DHT22;49573;47.682;9.170;2022-09-09T17:10:07;24.40;41.80
63445;DHT22;49573;47.682;9.170;2022-09-09T17:12:53;24.10;42.80
63445;DHT22;49573;47.682;9.170;2022-09-09T17:15:40;24.00;43.80
63445;DHT22;49573;47.682;9.170;2022-09-09T17:18:28;23.50;44.30
63445;DHT22;49573;47.682;9.170;2022-09-09T17:21:17;23.20;45.30
63445;DHT22;49573;47.682;9.170;2022-09-09T17:24:04;23.00;46.20
63445;DHT22;49573;47.682;9.170;2022-09-09T17:26:51;22.80;46.90
63445;DHT22;49573;47.682;9.170;2022-09-09T17:29:37;22.30;47.50
63445;DHT22;49573;47.682;9.170;2022-09-09T17:32:24;22.00;48.90
63445;DHT22;49573;47.682;9.170;2022-09-09T17:35:10;22.00;48.70
63445;DHT22;49573;47.682;9.170;2022-09-09T17:37:56;22.10;49.20
63445;DHT22;49573;47.682;9.170;2022-09-09T17:40:42;22.00;49.40
63445;DHT22;49573;47.682;9.170;2022-09-09T17:43:29;22.00;51.00
63445;DHT22;49573;47.682;9.170;2022-09-09T17:46:18;21.80;51.70
63445;DHT22;49573;47.682;9.170;2022-09-09T17:49:09;21.80;52.70